createdAt,value
2022-09-23T00:00:33.652Z,10.01
2022-09-23T00:01:33.639Z,10.01
2022-09-23T00:02:33.615Z,10.02
2022-09-23T00:03:33.548Z,10.05
2022-09-23T00:04:36.320Z,10.03
2022-09-23T00:05:33.521Z,10.08
2022-09-23T00:06:33.520Z,10.08
2022-09-23T00:07:33.502Z,10.09
2022-09-23T00:08:33.493Z,10.09
2022-09-23T00:09:33.477Z,10.09
2022-09-23T00:10:33.585Z,10.08
2022-09-23T00:11:33.480Z,10.09
2022-09-23T00:12:33.468Z,10.06
2022-09-23T00:13:33.430Z,10.05
2022-09-23T00:14:33.456Z,10.05
2022-09-23T00:15:33.420Z,10.03
2022-09-23T00:16:33.468Z,10.03
2022-09-23T00:17:33.390Z,10.02
2022-09-23T00:18:33.478Z,10.02
2022-09-23T00:19:33.371Z,10.02
2022-09-23T00:20:33.391Z,10.03
2022-09-23T00:21:33.340Z,10.03
2022-09-23T00:22:33.369Z,10.03
2022-09-23T00:23:33.330Z,10.06
2022-09-23T00:24:33.322Z,10.08
2022-09-23T00:25:33.300Z,10.09
2022-09-23T00:26:33.329Z,10.10
2022-09-23T00:27:33.278Z,10.12
2022-09-23T00:28:33.269Z,10.14
2022-09-23T00:29:33.277Z,10.16
2022-09-23T00:30:33.271Z,10.17
2022-09-23T00:31:33.307Z,10.18
2022-09-23T00:32:33.270Z,10.21
2022-09-23T00:33:33.219Z,10.23
2022-09-23T00:34:33.229Z,10.26
2022-09-23T00:35:33.189Z,10.26
2022-09-23T00:36:33.199Z,10.26
2022-09-23T00:37:33.298Z,10.27
2022-09-23T00:38:33.189Z,10.26
2022-09-23T00:39:33.151Z,10.26
2022-09-23T00:40:33.215Z,10.27
2022-09-23T00:41:33.126Z,10.26
2022-09-23T00:42:33.124Z,10.23
2022-09-23T00:43:33.157Z,10.23
2022-09-23T00:44:33.095Z,10.20
2022-09-23T00:45:33.079Z,10.20
2022-09-23T00:46:33.129Z,10.18
2022-09-23T00:47:33.060Z,10.17
2022-09-23T00:48:33.069Z,10.17
2022-09-23T00:49:33.079Z,10.18
2022-09-23T00:50:33.028Z,10.16
2022-09-23T00:51:33.039Z,10.14
2022-09-23T00:52:33.036Z,10.14
2022-09-23T00:53:32.997Z,10.14
2022-09-23T00:54:32.995Z,10.14
2022-09-23T00:55:32.999Z,10.16
2022-09-23T00:56:33.008Z,10.16
2022-09-23T00:57:32.978Z,10.12
2022-09-23T00:58:32.948Z,10.12
2022-09-23T00:59:32.948Z,10.12
2022-09-23T01:00:32.976Z,10.14
2022-09-23T01:01:32.983Z,10.14
2022-09-23T01:02:32.979Z,10.12
2022-09-23T01:03:32.907Z,10.10
2022-09-23T01:04:32.878Z,10.10
2022-09-23T01:05:32.858Z,10.10
2022-09-23T01:06:32.867Z,10.09
2022-09-23T01:07:32.929Z,10.09
2022-09-23T01:08:32.877Z,10.09
2022-09-23T01:09:32.817Z,10.09
2022-09-23T01:10:32.807Z,10.09
2022-09-23T01:11:32.806Z,10.08
2022-09-23T01:12:32.815Z,10.08
2022-09-23T01:13:32.809Z,10.06
2022-09-23T01:14:32.817Z,10.10
2022-09-23T01:15:32.786Z,10.10
2022-09-23T01:16:32.867Z,10.10
2022-09-23T01:17:32.746Z,10.10
2022-09-23T01:18:32.747Z,10.10
2022-09-23T01:19:32.748Z,10.10
2022-09-23T01:20:32.736Z,10.08
2022-09-23T01:21:32.696Z,10.05
2022-09-23T01:22:32.746Z,10.03
2022-09-23T01:23:32.678Z,10.02
2022-09-23T01:24:32.665Z,9.99
2022-09-23T01:25:32.711Z,9.96
2022-09-23T01:26:32.692Z,9.94
2022-09-23T01:27:32.623Z,9.93
2022-09-23T01:28:32.657Z,9.91
2022-09-23T01:29:32.606Z,9.90
2022-09-23T01:30:32.678Z,9.90
2022-09-23T01:31:32.620Z,9.88
2022-09-23T01:32:32.635Z,9.87
2022-09-23T01:33:32.567Z,9.85
2022-09-23T01:34:32.556Z,9.83
2022-09-23T01:35:32.545Z,9.83
2022-09-23T01:36:32.555Z,9.83
2022-09-23T01:37:32.536Z,9.80
2022-09-23T01:38:32.625Z,9.80
2022-09-23T01:39:32.545Z,9.80
2022-09-23T01:40:32.610Z,9.80
2022-09-23T01:41:32.506Z,9.81
2022-09-23T01:42:32.487Z,9.83
2022-09-23T01:43:32.455Z,9.84
2022-09-23T01:44:32.451Z,9.87
2022-09-23T01:45:32.463Z,9.88
2022-09-23T01:46:32.454Z,9.91
2022-09-23T01:47:32.406Z,9.91
2022-09-23T01:48:32.461Z,9.91
2022-09-23T01:49:32.387Z,9.91
2022-09-23T01:50:32.421Z,9.93
2022-09-23T01:51:32.415Z,9.93
2022-09-23T01:52:32.396Z,9.91
2022-09-23T01:53:32.384Z,9.91
2022-09-23T01:54:32.352Z,9.88
2022-09-23T01:55:32.345Z,9.85
2022-09-23T01:56:32.344Z,9.84
2022-09-23T01:57:32.294Z,9.84
2022-09-23T01:58:32.333Z,9.83
2022-09-23T01:59:32.299Z,9.81
2022-09-23T02:00:32.304Z,9.83
2022-09-23T02:01:32.317Z,9.80
2022-09-23T02:02:32.273Z,9.77
2022-09-23T02:03:32.263Z,9.73
2022-09-23T02:04:32.261Z,9.72
2022-09-23T02:05:32.215Z,9.72
2022-09-23T02:06:32.253Z,9.70
2022-09-23T02:07:33.915Z,9.70
2022-09-23T02:08:32.215Z,9.72
2022-09-23T02:09:32.166Z,9.70
2022-09-23T02:10:32.173Z,9.70
2022-09-23T02:11:32.143Z,9.70
2022-09-23T02:12:32.145Z,9.67
2022-09-23T02:13:32.183Z,9.67
2022-09-23T02:14:32.126Z,9.65
2022-09-23T02:15:32.102Z,9.66
2022-09-23T02:16:32.219Z,9.65
2022-09-23T02:17:32.094Z,9.63
2022-09-23T02:18:32.102Z,9.63
2022-09-23T02:19:32.066Z,9.65
2022-09-23T02:20:32.059Z,9.66
2022-09-23T02:21:32.042Z,9.67
2022-09-23T02:22:32.037Z,9.69
2022-09-23T02:23:40.412Z,9.72
2022-09-23T02:24:32.053Z,9.73
2022-09-23T02:25:32.012Z,9.73
2022-09-23T02:26:32.012Z,9.73
2022-09-23T02:27:31.973Z,9.77
2022-09-23T02:28:31.971Z,9.77
2022-09-23T02:29:31.992Z,9.77
2022-09-23T02:30:31.954Z,9.78
2022-09-23T02:31:32.001Z,9.75
2022-09-23T02:32:31.974Z,9.75
2022-09-23T02:33:31.932Z,9.75
2022-09-23T02:34:31.982Z,9.70
2022-09-23T02:35:31.953Z,9.70
2022-09-23T02:36:31.952Z,9.67
2022-09-23T02:37:31.934Z,9.65
2022-09-23T02:38:31.862Z,9.65
2022-09-23T02:39:31.891Z,9.62
2022-09-23T02:40:31.950Z,9.60
2022-09-23T02:41:31.892Z,9.57
2022-09-23T02:42:31.853Z,9.57
2022-09-23T02:43:31.801Z,9.59
2022-09-23T02:44:31.892Z,9.59
2022-09-23T02:45:31.956Z,9.60
2022-09-23T02:46:31.810Z,9.60
2022-09-23T02:47:31.792Z,9.60
2022-09-23T02:48:31.853Z,9.59
2022-09-23T02:49:31.822Z,9.59
2022-09-23T02:50:31.742Z,9.60
2022-09-23T02:51:31.773Z,9.60
2022-09-23T02:52:31.701Z,9.65
2022-09-23T02:53:31.692Z,9.65
2022-09-23T02:54:31.688Z,9.66
2022-09-23T02:55:31.692Z,9.66
2022-09-23T02:56:31.732Z,9.67
2022-09-23T02:57:31.722Z,9.69
2022-09-23T02:58:31.642Z,9.70
2022-09-23T02:59:31.690Z,9.69
2022-09-23T03:00:31.677Z,9.67
2022-09-23T03:01:31.900Z,9.65
2022-09-23T03:02:31.862Z,9.62
2022-09-23T03:03:31.628Z,9.62
2022-09-23T03:04:31.587Z,9.62
2022-09-23T03:05:31.609Z,9.60
2022-09-23T03:06:31.610Z,9.60
2022-09-23T03:07:31.588Z,9.60
2022-09-23T03:08:31.568Z,9.63
2022-09-23T03:09:31.527Z,9.63
2022-09-23T03:10:31.609Z,9.63
2022-09-23T03:11:31.609Z,9.60
2022-09-23T03:12:31.521Z,9.60
2022-09-23T03:13:31.533Z,9.57
2022-09-23T03:14:31.480Z,9.54
2022-09-23T03:15:31.509Z,9.57
2022-09-23T03:16:31.561Z,9.59
2022-09-23T03:17:31.430Z,9.60
2022-09-23T03:18:31.476Z,9.62
2022-09-23T03:19:31.487Z,9.65
2022-09-23T03:20:31.413Z,9.69
2022-09-23T03:21:31.440Z,9.69
2022-09-23T03:22:31.400Z,9.73
2022-09-23T03:23:31.436Z,9.75
2022-09-23T03:24:31.440Z,9.75
2022-09-23T03:25:31.387Z,9.78
2022-09-23T03:26:31.366Z,9.80
2022-09-23T03:27:31.351Z,9.78
2022-09-23T03:28:31.352Z,9.77
2022-09-23T03:29:31.306Z,9.78
2022-09-23T03:30:31.339Z,9.77
2022-09-23T03:31:31.344Z,9.78
2022-09-23T03:32:31.286Z,9.77
2022-09-23T03:33:31.258Z,9.73
2022-09-23T03:34:31.256Z,9.73
2022-09-23T03:35:31.268Z,9.73
2022-09-23T03:36:31.269Z,9.73
2022-09-23T03:37:31.232Z,9.73
2022-09-23T03:38:31.240Z,9.72
2022-09-23T03:39:31.231Z,9.70
2022-09-23T03:40:31.235Z,9.70
2022-09-23T03:41:31.189Z,9.72
2022-09-23T03:42:31.608Z,9.72
2022-09-23T03:43:31.159Z,9.73
2022-09-23T03:44:31.149Z,9.73
2022-09-23T03:45:32.361Z,9.75
2022-09-23T03:46:31.129Z,9.75
2022-09-23T03:47:31.149Z,9.75
2022-09-23T03:48:31.097Z,9.77
2022-09-23T03:49:31.105Z,9.78
2022-09-23T03:50:31.148Z,9.80
2022-09-23T03:51:31.406Z,9.81
2022-09-23T03:52:31.067Z,9.81
2022-09-23T03:53:31.159Z,9.80
2022-09-23T03:54:31.036Z,9.77
2022-09-23T03:55:31.049Z,9.73
2022-09-23T03:56:31.017Z,9.72
2022-09-23T03:57:31.031Z,9.73
2022-09-23T03:58:31.027Z,9.72
2022-09-23T03:59:31.028Z,9.70
2022-09-23T04:00:31.197Z,9.69
2022-09-23T04:01:30.996Z,9.67
2022-09-23T04:02:31.077Z,9.67
2022-09-23T04:03:30.992Z,9.70
2022-09-23T04:04:30.971Z,9.72
2022-09-23T04:05:30.943Z,9.73
2022-09-23T04:06:30.898Z,9.75
2022-09-23T04:07:30.945Z,9.75
2022-09-23T04:08:30.907Z,9.73
2022-09-23T04:09:30.883Z,9.72
2022-09-23T04:10:30.855Z,9.70
2022-09-23T04:11:30.866Z,9.72
2022-09-23T04:12:30.874Z,9.72
2022-09-23T04:13:30.865Z,9.75
2022-09-23T04:14:30.816Z,9.73
2022-09-23T04:15:30.846Z,9.75
2022-09-23T04:16:30.976Z,9.80
2022-09-23T04:17:30.798Z,9.78
2022-09-23T04:18:30.805Z,9.77
2022-09-23T04:19:30.793Z,9.72
2022-09-23T04:20:30.776Z,9.70
2022-09-23T04:21:30.743Z,9.69
2022-09-23T04:22:32.538Z,9.70
2022-09-23T04:23:30.723Z,9.67
2022-09-23T04:24:30.736Z,9.66
2022-09-23T04:25:30.709Z,9.67
2022-09-23T04:26:30.686Z,9.66
2022-09-23T04:27:35.451Z,9.66
2022-09-23T04:28:31.686Z,9.65
2022-09-23T04:29:30.655Z,9.63
2022-09-23T04:30:30.675Z,9.62
2022-09-23T04:31:30.714Z,9.63
2022-09-23T04:32:30.616Z,9.63
2022-09-23T04:33:30.606Z,9.62
2022-09-23T04:34:30.595Z,9.60
2022-09-23T04:35:30.726Z,9.60
2022-09-23T04:36:30.579Z,9.60
2022-09-23T04:37:30.566Z,9.60
2022-09-23T04:38:30.565Z,9.62
2022-09-23T04:39:30.545Z,9.62
2022-09-23T04:40:30.575Z,9.60
2022-09-23T04:41:33.758Z,9.60
2022-09-23T04:42:30.516Z,9.60
2022-09-23T04:43:30.511Z,9.60
2022-09-23T04:44:30.491Z,9.62
2022-09-23T04:45:30.491Z,9.62
2022-09-23T04:46:30.540Z,9.65
2022-09-23T04:47:30.465Z,9.65
2022-09-23T04:48:30.446Z,9.65
2022-09-23T04:49:30.435Z,9.63
2022-09-23T04:50:30.424Z,9.65
2022-09-23T04:51:30.450Z,9.63
2022-09-23T04:52:30.414Z,9.62
2022-09-23T04:53:30.396Z,9.59
2022-09-23T04:54:30.393Z,9.62
2022-09-23T04:55:30.374Z,9.59
2022-09-23T04:56:33.612Z,9.55
2022-09-23T04:57:30.375Z,9.57
2022-09-23T04:58:30.337Z,9.54
2022-09-23T04:59:30.338Z,9.52
2022-09-23T05:00:30.375Z,9.54
2022-09-23T05:01:30.435Z,9.54
2022-09-23T05:02:30.368Z,9.52
2022-09-23T05:03:30.293Z,9.52
2022-09-23T05:04:30.275Z,9.51
2022-09-23T05:05:30.267Z,9.50
2022-09-23T05:06:37.325Z,9.50
2022-09-23T05:07:30.247Z,9.50
2022-09-23T05:08:30.223Z,9.47
2022-09-23T05:09:30.213Z,9.44
2022-09-23T05:10:30.224Z,9.44
2022-09-23T05:11:30.265Z,9.42
2022-09-23T05:12:30.182Z,9.40
2022-09-23T05:13:30.184Z,9.37
2022-09-23T05:14:30.263Z,9.37
2022-09-23T05:15:30.201Z,9.40
2022-09-23T05:16:30.242Z,9.42
2022-09-23T05:17:30.141Z,9.44
2022-09-23T05:18:30.122Z,9.42
2022-09-23T05:19:30.112Z,9.44
2022-09-23T05:20:30.114Z,9.45
2022-09-23T05:21:30.088Z,9.44
2022-09-23T05:22:30.073Z,9.41
2022-09-23T05:23:30.083Z,9.37
2022-09-23T05:24:30.073Z,9.37
2022-09-23T05:25:30.042Z,9.36
2022-09-23T05:26:30.031Z,9.36
2022-09-23T05:27:30.018Z,9.36
2022-09-23T05:28:30.004Z,9.37
2022-09-23T05:29:33.403Z,9.40
2022-09-23T05:30:29.982Z,9.37
2022-09-23T05:31:30.107Z,9.40
2022-09-23T05:32:29.972Z,9.40
2022-09-23T05:33:29.962Z,9.40
2022-09-23T05:34:29.950Z,9.41
2022-09-23T05:35:29.961Z,9.41
2022-09-23T05:36:33.233Z,9.41
2022-09-23T05:37:30.921Z,9.40
2022-09-23T05:38:29.902Z,9.42
2022-09-23T05:39:29.942Z,9.41
2022-09-23T05:40:29.998Z,9.41
2022-09-23T05:41:29.873Z,9.42
2022-09-23T05:42:29.851Z,9.42
2022-09-23T05:43:29.941Z,9.44
2022-09-23T05:44:29.851Z,9.44
2022-09-23T05:45:29.871Z,9.44
2022-09-23T05:46:29.897Z,9.44
2022-09-23T05:47:29.823Z,9.45
2022-09-23T05:48:29.790Z,9.45
2022-09-23T05:49:55.267Z,9.48
2022-09-23T05:50:30.802Z,9.47
2022-09-23T05:51:31.093Z,9.47
2022-09-23T05:52:29.755Z,9.45
2022-09-23T05:53:29.777Z,9.44
2022-09-23T05:54:29.801Z,9.45
2022-09-23T05:55:29.731Z,9.47
2022-09-23T05:56:29.700Z,9.47
2022-09-23T05:57:29.699Z,9.50
2022-09-23T05:58:29.690Z,9.50
2022-09-23T05:59:29.670Z,9.51
2022-09-23T06:00:33.800Z,9.52
2022-09-23T06:01:29.665Z,9.55
2022-09-23T06:02:29.675Z,9.55
2022-09-23T06:03:29.639Z,9.55
2022-09-23T06:04:29.655Z,9.55
2022-09-23T06:05:29.649Z,9.55
2022-09-23T06:06:29.598Z,9.57
2022-09-23T06:07:29.589Z,9.60
2022-09-23T06:08:29.570Z,9.60
2022-09-23T06:09:34.111Z,9.65
2022-09-23T06:10:30.589Z,9.66
2022-09-23T06:11:29.549Z,9.67
2022-09-23T06:12:29.538Z,9.69
2022-09-23T06:13:29.526Z,9.70
2022-09-23T06:14:29.519Z,9.72
2022-09-23T06:15:29.497Z,9.70
2022-09-23T06:16:29.546Z,9.70
2022-09-23T06:17:29.488Z,9.70
2022-09-23T06:18:29.470Z,9.69
2022-09-23T06:19:29.458Z,9.69
2022-09-23T06:20:29.482Z,9.70
2022-09-23T06:21:29.429Z,9.70
2022-09-23T06:22:29.578Z,9.72
2022-09-23T06:23:29.408Z,9.73
2022-09-23T06:24:31.658Z,9.78
2022-09-23T06:25:29.397Z,9.83
2022-09-23T06:26:29.389Z,9.84
2022-09-23T06:27:29.369Z,9.90
2022-09-23T06:29:38.881Z,9.96
2022-09-23T06:30:38.844Z,9.99
2022-09-23T06:31:42.252Z,10.03
2022-09-23T06:32:38.824Z,10.06
2022-09-23T06:33:38.863Z,10.10
2022-09-23T06:34:49.203Z,10.14
2022-09-23T06:35:40.054Z,10.20
2022-09-23T06:36:44.050Z,10.23
2022-09-23T06:37:39.808Z,10.23
2022-09-23T06:38:38.764Z,10.24
2022-09-23T06:39:41.183Z,10.28
2022-09-23T06:40:38.822Z,10.30
2022-09-23T06:41:38.723Z,10.34
2022-09-23T06:42:38.753Z,10.36
2022-09-23T06:43:38.710Z,10.39
2022-09-23T06:44:38.894Z,10.41
2022-09-23T06:45:38.692Z,10.46
2022-09-23T06:46:38.714Z,10.49
2022-09-23T06:47:38.662Z,10.55
2022-09-23T06:48:41.722Z,10.61
2022-09-23T06:49:39.973Z,10.68
2022-09-23T06:50:38.642Z,10.75
2022-09-23T06:51:38.636Z,10.79
2022-09-23T06:52:38.635Z,10.85
2022-09-23T06:53:38.593Z,10.91
2022-09-23T06:54:38.622Z,10.95
2022-09-23T06:55:38.626Z,11.00
2022-09-23T06:56:39.719Z,11.04
2022-09-23T06:57:38.553Z,11.08
2022-09-23T06:58:38.547Z,11.12
2022-09-23T06:59:38.533Z,11.16
2022-09-23T07:00:38.530Z,11.22
2022-09-23T07:01:38.707Z,11.27
2022-09-23T07:02:38.644Z,11.36
2022-09-23T07:03:38.494Z,11.43
2022-09-23T07:04:38.533Z,11.49
2022-09-23T07:05:38.470Z,11.56
2022-09-23T07:06:38.491Z,11.62
2022-09-23T07:07:38.451Z,11.69
2022-09-23T07:08:38.447Z,11.76
2022-09-23T07:09:38.431Z,11.79
2022-09-23T07:10:38.455Z,11.87
2022-09-23T07:11:41.712Z,11.93
2022-09-23T07:12:38.401Z,11.99
2022-09-23T07:13:38.396Z,12.04
2022-09-23T07:14:38.382Z,12.07
2022-09-23T07:15:38.402Z,12.10
2022-09-23T07:16:38.395Z,12.14
2022-09-23T07:17:38.354Z,12.15
2022-09-23T07:18:38.390Z,12.18
2022-09-23T07:19:38.338Z,12.22
2022-09-23T07:20:38.323Z,12.25
2022-09-23T07:21:38.301Z,12.26
2022-09-23T07:22:38.302Z,12.30
2022-09-23T07:23:38.281Z,12.32
2022-09-23T07:24:40.011Z,12.35
2022-09-23T07:25:38.262Z,12.36
2022-09-23T07:26:42.219Z,12.40
2022-09-23T07:27:39.240Z,12.43
2022-09-23T07:28:38.233Z,12.44
2022-09-23T07:29:46.616Z,12.48
2022-09-23T07:30:40.794Z,12.51
2022-09-23T07:31:39.881Z,12.54
2022-09-23T07:32:47.370Z,12.55
2022-09-23T07:33:39.215Z,12.59
2022-09-23T07:34:38.160Z,12.63
2022-09-23T07:35:38.155Z,12.66
2022-09-23T07:36:38.169Z,12.69
2022-09-23T07:37:38.130Z,12.72
2022-09-23T07:38:42.806Z,12.76
2022-09-23T07:39:39.114Z,12.79
2022-09-23T07:40:38.236Z,12.80
2022-09-23T07:41:38.097Z,12.81
2022-09-23T07:42:38.070Z,12.84
2022-09-23T07:43:38.069Z,12.86
2022-09-23T07:44:38.077Z,12.88
2022-09-23T07:45:38.101Z,12.93
2022-09-23T07:46:38.108Z,12.98
2022-09-23T07:47:38.021Z,13.02
2022-09-23T07:48:38.010Z,13.05
2022-09-23T07:49:38.013Z,13.06
2022-09-23T07:50:38.000Z,13.13
2022-09-23T07:51:38.025Z,13.16
2022-09-23T07:52:37.960Z,13.19
2022-09-23T07:53:37.962Z,13.20
2022-09-23T07:54:37.942Z,13.24
2022-09-23T07:55:37.970Z,13.29
2022-09-23T07:56:37.950Z,13.32
2022-09-23T07:57:37.981Z,13.38
2022-09-23T07:58:37.907Z,13.42
2022-09-23T07:59:37.935Z,13.43
2022-09-23T08:00:37.878Z,13.46
2022-09-23T08:01:38.000Z,13.47
2022-09-23T08:02:37.928Z,13.51
2022-09-23T08:03:37.850Z,13.57
2022-09-23T08:04:37.890Z,13.61
2022-09-23T08:05:37.838Z,13.65
2022-09-23T08:06:37.824Z,13.68
2022-09-23T08:07:38.180Z,13.72
2022-09-23T08:08:37.790Z,13.73
2022-09-23T08:09:37.800Z,13.76
2022-09-23T08:10:37.773Z,13.78
2022-09-23T08:11:37.769Z,13.80
2022-09-23T08:12:37.757Z,13.82
2022-09-23T08:13:37.830Z,13.86
2022-09-23T08:14:37.771Z,13.90
2022-09-23T08:15:37.774Z,13.91
2022-09-23T08:16:37.703Z,13.94
2022-09-23T08:17:37.710Z,13.98
2022-09-23T08:18:37.680Z,14.01
2022-09-23T08:19:37.741Z,14.05
2022-09-23T08:20:37.660Z,14.11
2022-09-23T08:21:37.676Z,14.11
2022-09-23T08:22:37.640Z,14.12
2022-09-23T08:23:37.632Z,14.15
2022-09-23T08:24:41.349Z,14.16
2022-09-23T08:25:37.621Z,14.18
2022-09-23T08:26:37.601Z,14.19
2022-09-23T08:27:37.605Z,14.19
2022-09-23T08:28:37.584Z,14.21
2022-09-23T08:29:37.597Z,14.21
2022-09-23T08:30:43.023Z,14.26
2022-09-23T08:31:42.914Z,14.26
2022-09-23T08:32:37.567Z,14.26
2022-09-23T08:33:37.519Z,14.28
2022-09-23T08:34:37.529Z,14.30
2022-09-23T08:35:37.566Z,14.33
2022-09-23T08:36:37.616Z,14.34
2022-09-23T08:37:37.509Z,14.37
2022-09-23T08:38:37.496Z,14.38
2022-09-23T08:39:37.464Z,14.40
2022-09-23T08:40:37.632Z,14.41
2022-09-23T08:41:37.461Z,14.44
2022-09-23T08:42:37.454Z,14.45
2022-09-23T08:43:37.419Z,14.46
2022-09-23T08:44:37.408Z,14.49
2022-09-23T08:45:37.528Z,14.51
2022-09-23T08:46:37.410Z,14.53
2022-09-23T08:47:37.391Z,14.58
2022-09-23T08:48:37.371Z,14.63
2022-09-23T08:49:37.428Z,14.66
2022-09-23T08:50:37.480Z,14.67
2022-09-23T08:51:37.449Z,14.69
2022-09-23T08:52:37.319Z,14.69
2022-09-23T08:53:37.346Z,14.70
2022-09-23T08:54:37.319Z,14.73
2022-09-23T08:55:37.350Z,14.73
2022-09-23T08:56:37.278Z,14.74
2022-09-23T08:57:37.321Z,14.74
2022-09-23T08:58:37.263Z,14.78
2022-09-23T08:59:37.249Z,14.82
2022-09-23T09:00:37.278Z,14.82
2022-09-23T09:01:37.246Z,14.86
2022-09-23T09:02:37.333Z,14.89
2022-09-23T09:03:37.242Z,14.92
2022-09-23T09:04:37.199Z,14.95
2022-09-23T09:05:39.699Z,14.96
2022-09-23T09:06:51.892Z,14.96
2022-09-23T09:07:38.501Z,14.99
2022-09-23T09:08:37.150Z,15.01
2022-09-23T09:09:37.348Z,15.07
2022-09-23T09:10:37.147Z,15.10
2022-09-23T09:11:37.128Z,15.12
2022-09-23T09:12:37.131Z,15.14
2022-09-23T09:13:37.189Z,15.19
2022-09-23T09:14:37.100Z,15.23
2022-09-23T09:15:37.533Z,15.23
2022-09-23T09:16:58.548Z,15.23
2022-09-23T09:17:38.264Z,15.23
2022-09-23T09:18:37.041Z,15.23
2022-09-23T09:19:37.040Z,15.20
2022-09-23T09:20:37.022Z,15.20
2022-09-23T09:21:37.022Z,15.20
2022-09-23T09:23:37.099Z,15.22
2022-09-23T09:24:37.023Z,15.22
2022-09-23T09:25:36.970Z,15.26
2022-09-23T09:26:36.966Z,15.25
2022-09-23T09:27:36.949Z,15.25
2022-09-23T09:28:36.938Z,15.25
2022-09-23T09:29:50.132Z,15.23
2022-09-23T09:30:36.962Z,15.25
2022-09-23T09:31:37.022Z,15.27
2022-09-23T09:32:42.330Z,15.26
2022-09-23T09:33:36.968Z,15.26
2022-09-23T09:34:36.879Z,15.26
2022-09-23T09:35:36.965Z,15.26
2022-09-23T09:36:36.840Z,15.29
2022-09-23T09:37:36.839Z,15.29
2022-09-23T09:38:36.826Z,15.29
2022-09-23T09:39:36.860Z,15.29
2022-09-23T09:40:37.003Z,15.32
2022-09-23T09:41:36.809Z,15.36
2022-09-23T09:42:36.785Z,15.40
2022-09-23T09:43:38.846Z,15.43
2022-09-23T09:44:37.135Z,15.43
2022-09-23T09:45:36.838Z,15.45
2022-09-23T09:46:36.853Z,15.47
2022-09-23T09:47:36.729Z,15.48
2022-09-23T09:48:36.761Z,15.51
2022-09-23T09:49:40.281Z,15.54
2022-09-23T09:50:36.689Z,15.54
2022-09-23T09:51:36.757Z,15.58
2022-09-23T09:52:37.357Z,15.63
2022-09-23T09:53:36.619Z,15.70
2022-09-23T09:54:36.756Z,15.77
2022-09-23T09:55:36.595Z,15.81
2022-09-23T09:56:36.658Z,15.85
2022-09-23T09:57:36.586Z,15.90
2022-09-23T09:58:36.567Z,15.95
2022-09-23T09:59:36.550Z,15.99
2022-09-23T10:00:41.202Z,15.99
2022-09-23T10:01:36.540Z,16.00
2022-09-23T10:02:36.510Z,15.99
2022-09-23T10:03:36.502Z,15.96
2022-09-23T10:04:36.591Z,15.98
2022-09-23T10:05:36.515Z,15.96
2022-09-23T10:06:36.640Z,15.95
2022-09-23T10:07:36.461Z,15.95
2022-09-23T10:08:36.440Z,15.98
2022-09-23T10:09:36.441Z,15.98
2022-09-23T10:10:36.453Z,15.96
2022-09-23T10:11:36.416Z,15.98
2022-09-23T10:12:36.449Z,15.99
2022-09-23T10:13:36.389Z,16.00
2022-09-23T10:14:36.379Z,16.02
2022-09-23T10:15:36.398Z,16.06
2022-09-23T10:16:36.472Z,16.08
2022-09-23T10:17:36.354Z,16.06
2022-09-23T10:18:36.340Z,16.06
2022-09-23T10:19:36.327Z,16.08
2022-09-23T10:20:36.327Z,16.08
2022-09-23T10:21:36.328Z,16.05
2022-09-23T10:22:36.333Z,16.05
2022-09-23T10:23:36.288Z,16.06
2022-09-23T10:24:36.279Z,16.08
2022-09-23T10:25:36.269Z,16.09
2022-09-23T10:26:36.248Z,16.09
2022-09-23T10:27:36.239Z,16.13
2022-09-23T10:28:36.309Z,16.14
2022-09-23T10:29:36.226Z,16.17
2022-09-23T10:30:36.269Z,16.18
2022-09-23T10:31:36.208Z,16.16
2022-09-23T10:32:36.179Z,16.18
2022-09-23T10:33:36.180Z,16.18
2022-09-23T10:34:36.228Z,16.21
2022-09-23T10:35:36.170Z,16.24
2022-09-23T10:36:36.152Z,16.24
2022-09-23T10:37:36.143Z,16.25
2022-09-23T10:38:36.133Z,16.22
2022-09-23T10:39:36.123Z,16.21
2022-09-23T10:40:36.197Z,16.22
2022-09-23T10:41:36.093Z,16.26
2022-09-23T10:42:36.134Z,16.28
2022-09-23T10:43:36.085Z,16.25
2022-09-23T10:44:36.071Z,16.26
2022-09-23T10:45:38.588Z,16.26
2022-09-23T10:46:37.086Z,16.32
2022-09-23T10:47:36.036Z,16.34
2022-09-23T10:48:36.048Z,16.39
2022-09-23T10:49:37.519Z,16.43
2022-09-23T10:50:36.008Z,16.47
2022-09-23T10:51:35.998Z,16.51
2022-09-23T10:52:35.989Z,16.54
2022-09-23T10:53:35.983Z,16.58
2022-09-23T10:54:36.001Z,16.59
2022-09-23T10:55:35.960Z,16.61
2022-09-23T10:56:35.940Z,16.61
2022-09-23T10:57:35.944Z,16.59
2022-09-23T10:58:35.923Z,16.64
2022-09-23T10:59:35.920Z,16.65
2022-09-23T11:00:35.927Z,16.72
2022-09-23T11:01:35.969Z,16.77
2022-09-23T11:02:35.877Z,16.79
2022-09-23T11:03:35.874Z,16.79
2022-09-23T11:04:35.916Z,16.79
2022-09-23T11:05:35.877Z,16.83
2022-09-23T11:06:35.857Z,16.90
2022-09-23T11:07:42.873Z,16.91
2022-09-23T11:08:35.813Z,16.94
2022-09-23T11:09:35.812Z,16.94
2022-09-23T11:10:46.286Z,16.92
2022-09-23T11:11:36.784Z,16.94
2022-09-23T11:12:35.781Z,16.95
2022-09-23T11:13:35.765Z,16.95
2022-09-23T11:14:35.786Z,16.97
2022-09-23T11:15:35.772Z,16.99
2022-09-23T11:16:35.767Z,17.04
2022-09-23T11:17:35.725Z,17.06
2022-09-23T11:18:35.715Z,17.06
2022-09-23T11:19:35.719Z,17.09
2022-09-23T11:20:35.714Z,17.07
2022-09-23T11:21:35.729Z,17.09
2022-09-23T11:22:35.678Z,17.09
2022-09-23T11:23:35.666Z,17.10
2022-09-23T11:24:35.660Z,17.10
2022-09-23T11:25:35.639Z,17.09
2022-09-23T11:26:35.775Z,17.12
2022-09-23T11:27:35.647Z,17.13
2022-09-23T11:28:35.599Z,17.14
2022-09-23T11:29:35.600Z,17.13
2022-09-23T11:30:35.608Z,17.13
2022-09-23T11:31:35.577Z,17.13
2022-09-23T11:32:35.590Z,17.16
2022-09-23T11:33:35.549Z,17.19
2022-09-23T11:34:35.590Z,17.24
2022-09-23T11:35:35.531Z,17.27
2022-09-23T11:36:35.520Z,17.28
2022-09-23T11:37:35.511Z,17.32
2022-09-23T11:38:35.505Z,17.37
2022-09-23T11:39:35.494Z,17.37
2022-09-23T11:40:35.575Z,17.39
2022-09-23T11:41:35.475Z,17.41
2022-09-23T11:42:35.453Z,17.43
2022-09-23T11:43:35.453Z,17.47
2022-09-23T11:44:35.475Z,17.53
2022-09-23T11:45:35.515Z,17.63
2022-09-23T11:46:35.424Z,17.66
2022-09-23T11:47:39.579Z,17.69
2022-09-23T11:48:35.397Z,17.72
2022-09-23T11:49:35.444Z,17.71
2022-09-23T11:50:35.374Z,17.73
2022-09-23T11:51:35.363Z,17.75
2022-09-23T11:52:35.363Z,17.72
2022-09-23T11:53:35.353Z,17.75
2022-09-23T11:54:35.334Z,17.81
2022-09-23T11:55:35.647Z,17.83
2022-09-23T11:56:36.919Z,17.86
2022-09-23T11:57:45.658Z,17.90
2022-09-23T11:58:36.322Z,17.94
2022-09-23T11:59:40.130Z,17.93
2022-09-23T12:00:36.297Z,17.97
2022-09-23T12:01:37.999Z,17.99
2022-09-23T12:02:35.302Z,17.99
2022-09-23T12:03:43.462Z,18.02
2022-09-23T12:04:37.632Z,18.02
2022-09-23T12:05:35.348Z,18.03
2022-09-23T12:06:35.208Z,18.08
2022-09-23T12:07:35.198Z,18.09
2022-09-23T12:08:36.898Z,18.08
2022-09-23T12:09:57.251Z,18.06
2022-09-23T12:10:36.160Z,18.09
2022-09-23T12:11:35.149Z,18.08
2022-09-23T12:12:35.186Z,18.06
2022-09-23T12:13:35.129Z,18.03
2022-09-23T12:14:35.130Z,18.03
2022-09-23T12:15:35.125Z,18.05
2022-09-23T12:16:35.142Z,18.06
2022-09-23T12:17:35.132Z,18.06
2022-09-23T12:18:35.091Z,18.06
2022-09-23T12:19:35.074Z,18.08
2022-09-23T12:20:35.072Z,18.09
2022-09-23T12:21:51.485Z,18.13
2022-09-23T12:22:36.070Z,18.17
2022-09-23T12:23:35.021Z,18.20
2022-09-23T12:24:35.019Z,18.21
2022-09-23T12:25:35.002Z,18.24
2022-09-23T12:26:35.072Z,18.20
2022-09-23T12:27:34.983Z,18.21
2022-09-23T12:28:34.973Z,18.21
2022-09-23T12:29:34.963Z,18.21
2022-09-23T12:30:35.066Z,18.20
2022-09-23T12:31:37.563Z,18.21
2022-09-23T12:32:35.935Z,18.20
2022-09-23T12:33:34.941Z,18.21
2022-09-23T12:34:34.911Z,18.20
2022-09-23T12:35:34.931Z,18.20
2022-09-23T12:36:34.895Z,18.20
2022-09-23T12:37:34.873Z,18.21
2022-09-23T12:38:34.874Z,18.24
2022-09-23T12:39:34.854Z,18.24
2022-09-23T12:40:34.929Z,18.26
2022-09-23T12:41:34.864Z,18.27
2022-09-23T12:42:34.824Z,18.31
2022-09-23T12:43:34.819Z,18.34
2022-09-23T12:44:34.804Z,18.36
2022-09-23T12:45:35.056Z,18.39
2022-09-23T12:46:34.828Z,18.39
2022-09-23T12:47:34.837Z,18.41
2022-09-23T12:48:34.755Z,18.41
2022-09-23T12:49:34.767Z,18.39
2022-09-23T12:50:34.745Z,18.38
2022-09-23T12:51:34.728Z,18.38
2022-09-23T12:52:34.746Z,18.38
2022-09-23T12:53:34.708Z,18.36
2022-09-23T12:54:34.709Z,18.34
2022-09-23T12:55:34.684Z,18.30
2022-09-23T12:56:34.686Z,18.30
2022-09-23T12:57:34.665Z,18.26
2022-09-23T12:58:34.706Z,18.24
2022-09-23T12:59:34.638Z,18.26
2022-09-23T13:00:34.636Z,18.23
2022-09-23T13:01:34.715Z,18.23
2022-09-23T13:02:34.733Z,18.23
2022-09-23T13:03:34.626Z,18.21
2022-09-23T13:04:34.588Z,18.24